Time;durP1;ratioP1;P1;durP2;ratioP2;P2;SDS_P1;SDS_P2;PMS_P1;PMS_P2;Temp;Humidity;BMP_temperature;BMP_pressure;BME280_temperature;BME280_humidity;BME280_pressure;Samples;Min_cycle;Max_cycle;Signal;HPM_P1;HPM_P2
2023/07/27 00:01:19;;;;;;;5.85;1.30;;;;;;;;;;5004069;28;20046;-72
2023/07/27 00:03:44;;;;;;;1.30;1.20;;;;;;;;;;5010211;28;20045;-71
2023/07/27 00:06:10;;;;;;;1.75;1.33;;;;;;;;;;5005666;28;20042;-71
2023/07/27 00:08:35;;;;;;;2.00;1.40;;;;;;;;;;5000232;28;20129;-71
2023/07/27 00:11:01;;;;;;;1.35;1.25;;;;;;;;;;4999959;28;20049;-71
2023/07/27 00:13:26;;;;;;;1.98;1.40;;;;;;;;;;5000425;28;20125;-71
2023/07/27 00:15:52;;;;;;;2.22;1.20;;;;;;;;;;5016683;28;20038;-72
2023/07/27 00:18:17;;;;;;;4.55;1.33;;;;;;;;;;5002127;28;20507;-71
2023/07/27 00:20:42;;;;;;;1.90;1.67;;;;;;;;;;4999699;28;20049;-71
2023/07/27 00:23:08;;;;;;;1.42;1.33;;;;;;;;;;5001548;28;20077;-72
2023/07/27 00:25:33;;;;;;;2.50;1.40;;;;;;;;;;5003311;28;20049;-72
2023/07/27 00:27:59;;;;;;;2.38;1.50;;;;;;;;;;5000237;28;20057;-70
2023/07/27 00:30:24;;;;;;;1.50;1.40;;;;;;;;;;4999729;28;20080;-72
2023/07/27 00:32:50;;;;;;;1.40;1.30;;;;;;;;;;5001259;28;20120;-71
2023/07/27 00:35:15;;;;;;;1.83;1.40;;;;;;;;;;5000024;28;20710;-71
2023/07/27 00:37:41;;;;;;;2.00;1.35;;;;;;;;;;5004051;28;20054;-73
2023/07/27 00:40:07;;;;;;;1.45;1.33;;;;;;;;;;4999869;28;20079;-74
2023/07/27 00:42:32;;;;;;;7.07;1.50;;;;;;;;;;4999819;28;20511;-71
2023/07/27 00:44:58;;;;;;;2.47;1.60;;;;;;;;;;4999991;28;20058;-71
2023/07/27 00:47:23;;;;;;;4.03;1.35;;;;;;;;;;5001991;28;20065;-71
2023/07/27 00:49:50;;;;;;;1.55;1.30;;;;;;;;;;5001769;28;20037;-72
2023/07/27 00:52:15;;;;;;;3.13;1.73;;;;;;;;;;5001896;28;20069;-71
2023/07/27 00:54:41;;;;;;;1.70;1.50;;;;;;;;;;4998868;28;20050;-71
2023/07/27 00:57:07;;;;;;;4.93;1.38;;;;;;;;;;5000770;28;20232;-72
2023/07/27 00:59:33;;;;;;;2.00;1.30;;;;;;;;;;4999184;28;20056;-72
2023/07/27 01:01:59;;;;;;;1.92;1.33;;;;;;;;;;4999311;28;20457;-72
2023/07/27 01:04:25;;;;;;;2.35;1.50;;;;;;;;;;4997711;28;20050;-71
2023/07/27 01:06:51;;;;;;;4.97;1.55;;;;;;;;;;4999322;28;20153;-72
2023/07/27 01:09:16;;;;;;;6.03;1.65;;;;;;;;;;4998245;28;20111;-73
2023/07/27 01:12:01;;;;;;;1.60;1.50;;;;;;;;;;5001450;28;20056;-71
2023/07/27 01:14:52;;;;;;;1.88;1.48;;;;;;;;;;5001232;28;20060;-70
2023/07/27 01:17:26;;;;;;;2.22;1.70;;;;;;;;;;4998412;28;20056;-71
2023/07/27 01:20:04;;;;;;;2.83;1.50;;;;;;;;;;4999332;28;20046;-71
2023/07/27 01:22:30;;;;;;;6.95;1.83;;;;;;;;;;4999877;28;20053;-71
2023/07/27 01:25:09;;;;;;;3.47;2.10;;;;;;;;;;4998913;28;20062;-71
2023/07/27 01:27:52;;;;;;;1.70;1.60;;;;;;;;;;4999079;28;20052;-72
2023/07/27 01:30:27;;;;;;;1.98;1.77;;;;;;;;;;5000673;28;20046;-70
2023/07/27 01:32:59;;;;;;;8.77;1.83;;;;;;;;;;5008890;28;20057;-70
2023/07/27 01:35:31;;;;;;;2.47;1.67;;;;;;;;;;5000547;28;20089;-71
2023/07/27 01:37:59;;;;;;;;;;;;;;;;;;5000063;28;20050;-71
2023/07/27 01:40:26;;;;;;;1.90;1.70;;;;;;;;;;5014662;28;19951;-71
2023/07/27 01:42:52;;;;;;;2.65;2.28;;;;;;;;;;5001828;28;20048;-71
2023/07/27 01:45:18;;;;;;;4.32;1.83;;;;;;;;;;4997434;28;20054;-71
2023/07/27 01:47:45;;;;;;;2.10;1.65;;;;;;;;;;4997966;28;20137;-71
2023/07/27 01:50:14;;;;;;;1.52;1.40;;;;;;;;;;5000221;28;20045;-71
2023/07/27 01:52:41;;;;;;;4.63;1.88;;;;;;;;;;4999337;28;20046;-70
2023/07/27 01:55:07;;;;;;;1.83;1.52;;;;;;;;;;5000599;28;20662;-70
2023/07/27 01:57:35;;;;;;;2.35;1.60;;;;;;;;;;4998478;28;20132;-70
2023/07/27 02:00:02;;;;;;;1.92;1.50;;;;;;;;;;4998371;28;20073;-70
2023/07/27 02:02:29;;;;;;;2.35;1.88;;;;;;;;;;4998012;28;20049;-70
2023/07/27 02:04:57;;;;;;;1.73;1.63;;;;;;;;;;4999273;28;20121;-70
2023/07/27 02:07:22;;;;;;;1.95;1.63;;;;;;;;;;4998484;28;20123;-70
2023/07/27 02:09:48;;;;;;;2.25;1.90;;;;;;;;;;4998281;28;20054;-70
2023/07/27 02:12:19;;;;;;;2.85;1.52;;;;;;;;;;4998447;28;20050;-70
2023/07/27 02:14:52;;;;;;;2.25;1.92;;;;;;;;;;4997925;28;20077;-70
2023/07/27 02:17:26;;;;;;;1.85;1.75;;;;;;;;;;4999345;28;20049;-70
2023/07/27 02:19:56;;;;;;;1.52;1.42;;;;;;;;;;4997850;28;20076;-70
2023/07/27 02:22:24;;;;;;;2.28;1.95;;;;;;;;;;4997900;28;20129;-70
2023/07/27 02:24:50;;;;;;;2.38;1.70;;;;;;;;;;5001775;28;20089;-70
2023/07/27 02:27:16;;;;;;;1.88;1.75;;;;;;;;;;5003780;28;20050;-70
2023/07/27 02:29:43;;;;;;;1.95;1.52;;;;;;;;;;5001969;28;20050;-70
2023/07/27 02:32:09;;;;;;;3.90;1.98;;;;;;;;;;5002181;28;20046;-70
2023/07/27 02:34:34;;;;;;;1.55;1.45;;;;;;;;;;5002869;28;20037;-70
2023/07/27 02:37:00;;;;;;;5.18;1.80;;;;;;;;;;5026064;28;20064;-70
2023/07/27 02:39:25;;;;;;;3.72;1.50;;;;;;;;;;5001177;28;20053;-70
2023/07/27 02:41:50;;;;;;;2.30;1.70;;;;;;;;;;5005569;28;20136;-71
2023/07/27 02:44:19;;;;;;;2.88;1.80;;;;;;;;;;5009108;28;20056;-71
2023/07/27 02:46:44;;;;;;;2.25;1.92;;;;;;;;;;5005013;28;20057;-70
2023/07/27 02:49:09;;;;;;;3.65;1.88;;;;;;;;;;5008598;28;20103;-71
2023/07/27 02:51:38;;;;;;;1.60;1.50;;;;;;;;;;5003767;28;20046;-70
2023/07/27 02:54:03;;;;;;;1.80;1.60;;;;;;;;;;5001925;28;20046;-70
2023/07/27 02:56:31;;;;;;;2.95;1.73;;;;;;;;;;5000965;28;20140;-70
2023/07/27 02:58:57;;;;;;;2.25;1.60;;;;;;;;;;5001545;28;20132;-70
2023/07/27 03:01:22;;;;;;;1.52;1.38;;;;;;;;;;5003561;28;20679;-70
2023/07/27 03:03:54;;;;;;;3.45;1.90;;;;;;;;;;5001233;28;20577;-71
2023/07/27 03:06:20;;;;;;;2.45;1.58;;;;;;;;;;5000689;28;20054;-71
2023/07/27 03:08:51;;;;;;;2.45;1.70;;;;;;;;;;5001040;28;20042;-70
2023/07/27 03:11:17;;;;;;;1.88;1.63;;;;;;;;;;5001803;28;20054;-70
2023/07/27 03:13:42;;;;;;;2.72;1.65;;;;;;;;;;5002616;28;20041;-70
2023/07/27 03:16:08;;;;;;;3.22;1.70;;;;;;;;;;5000896;28;20049;-70
2023/07/27 03:18:33;;;;;;;2.45;1.85;;;;;;;;;;5000353;28;20057;-70
2023/07/27 03:21:04;;;;;;;4.32;2.05;;;;;;;;;;5001068;28;20100;-70
2023/07/27 03:23:29;;;;;;;1.90;1.60;;;;;;;;;;5002576;28;20208;-70
2023/07/27 03:25:55;;;;;;;2.28;1.60;;;;;;;;;;5002652;28;20573;-71
2023/07/27 03:28:20;;;;;;;2.33;1.90;;;;;;;;;;5000154;28;20470;-71
2023/07/27 03:30:46;;;;;;;3.10;1.70;;;;;;;;;;5000051;28;20104;-71
2023/07/27 03:33:11;;;;;;;2.15;1.83;;;;;;;;;;5009773;28;20053;-71
2023/07/27 03:35:37;;;;;;;5.05;2.08;;;;;;;;;;5001805;28;20135;-71
2023/07/27 03:38:02;;;;;;;2.15;1.90;;;;;;;;;;5000500;28;20037;-71
2023/07/27 03:40:28;;;;;;;1.90;1.55;;;;;;;;;;5000245;28;20084;-71
2023/07/27 03:42:53;;;;;;;2.45;2.00;;;;;;;;;;5000722;28;20042;-71
2023/07/27 03:45:19;;;;;;;4.38;1.70;;;;;;;;;;5001483;28;20049;-71
2023/07/27 03:47:45;;;;;;;4.03;2.08;;;;;;;;;;5007238;28;20577;-71
2023/07/27 03:50:11;;;;;;;5.00;2.10;;;;;;;;;;5000902;28;20049;-71
2023/07/27 03:52:38;;;;;;;2.53;1.90;;;;;;;;;;5000121;28;20069;-71
2023/07/27 03:55:08;;;;;;;2.35;1.95;;;;;;;;;;5013224;28;20038;-71
2023/07/27 03:57:33;;;;;;;5.47;2.00;;;;;;;;;;5015837;28;20053;-71
2023/07/27 04:00:00;;;;;;;2.55;1.88;;;;;;;;;;5010093;28;20145;-71
2023/07/27 04:02:26;;;;;;;2.08;1.73;;;;;;;;;;5002648;28;20077;-71
2023/07/27 04:04:53;;;;;;;2.10;1.85;;;;;;;;;;5009231;28;20085;-71
2023/07/27 04:07:19;;;;;;;2.75;1.90;;;;;;;;;;5002729;28;20061;-71
2023/07/27 04:09:44;;;;;;;2.13;1.92;;;;;;;;;;5000524;28;20054;-71
2023/07/27 04:12:10;;;;;;;3.70;2.00;;;;;;;;;;5007153;28;20116;-71
2023/07/27 04:14:37;;;;;;;2.35;1.83;;;;;;;;;;4999754;28;20049;-71
2023/07/27 04:17:02;;;;;;;2.60;2.30;;;;;;;;;;5002311;28;20462;-71
2023/07/27 04:19:27;;;;;;;2.88;2.00;;;;;;;;;;5008462;28;20518;-71
2023/07/27 04:21:53;;;;;;;6.03;1.70;;;;;;;;;;5014546;28;20608;-72
2023/07/27 04:24:18;;;;;;;3.45;1.70;;;;;;;;;;5013737;28;20054;-72
2023/07/27 04:26:44;;;;;;;4.03;1.92;;;;;;;;;;4991433;28;20076;-71
2023/07/27 04:29:09;;;;;;;1.63;1.52;;;;;;;;;;5009151;28;20062;-72
2023/07/27 04:31:35;;;;;;;2.30;1.90;;;;;;;;;;5000965;28;20076;-72
2023/07/27 04:34:00;;;;;;;3.10;2.13;;;;;;;;;;5001669;28;20483;-72
2023/07/27 04:36:26;;;;;;;3.15;1.98;;;;;;;;;;5004626;28;20067;-71
2023/07/27 04:38:51;;;;;;;4.03;1.73;;;;;;;;;;5002097;28;20053;-71
2023/07/27 04:41:16;;;;;;;4.93;2.22;;;;;;;;;;5009688;28;20057;-72
2023/07/27 04:43:42;;;;;;;2.25;1.65;;;;;;;;;;5011735;28;20045;-71
2023/07/27 04:46:07;;;;;;;2.30;1.85;;;;;;;;;;5011788;28;20092;-71
2023/07/27 04:48:33;;;;;;;6.22;2.13;;;;;;;;;;5007908;28;20103;-71
2023/07/27 04:50:58;;;;;;;2.03;1.80;;;;;;;;;;4986852;28;20053;-71
2023/07/27 04:53:24;;;;;;;4.85;2.10;;;;;;;;;;5008133;28;20042;-71
2023/07/27 04:55:50;;;;;;;2.90;1.88;;;;;;;;;;5008844;28;20528;-71
2023/07/27 04:58:15;;;;;;;2.72;1.73;;;;;;;;;;4991128;28;20050;-71
2023/07/27 05:00:41;;;;;;;1.90;1.70;;;;;;;;;;4994807;28;20080;-71
2023/07/27 05:03:06;;;;;;;5.75;2.03;;;;;;;;;;5003766;28;20034;-71
2023/07/27 05:05:31;;;;;;;2.20;1.50;;;;;;;;;;5010032;28;20042;-71
2023/07/27 05:07:57;;;;;;;5.55;1.70;;;;;;;;;;5010100;28;20069;-71
2023/07/27 05:10:23;;;;;;;1.98;1.67;;;;;;;;;;5006535;28;20045;-71
2023/07/27 05:12:49;;;;;;;3.17;1.75;;;;;;;;;;5000558;28;20053;-71
2023/07/27 05:15:15;;;;;;;2.67;1.55;;;;;;;;;;4999015;28;20046;-71
2023/07/27 05:17:40;;;;;;;3.08;1.50;;;;;;;;;;4997291;28;20092;-71
2023/07/27 05:20:06;;;;;;;2.60;1.58;;;;;;;;;;4996984;28;20503;-71
2023/07/27 05:22:31;;;;;;;2.15;1.17;;;;;;;;;;4996973;28;20076;-71
2023/07/27 05:24:57;;;;;;;1.65;1.50;;;;;;;;;;4996905;28;20636;-70
2023/07/27 05:27:22;;;;;;;3.53;1.85;;;;;;;;;;4998926;28;20383;-71
2023/07/27 05:29:48;;;;;;;9.20;1.70;;;;;;;;;;4999560;28;20088;-70
2023/07/27 05:32:13;;;;;;;3.10;1.58;;;;;;;;;;4999284;28;20761;-73
2023/07/27 05:34:38;;;;;;;1.75;1.45;;;;;;;;;;5000807;28;20446;-73
2023/07/27 05:37:04;;;;;;;1.60;1.50;;;;;;;;;;5004249;28;20119;-73
2023/07/27 05:39:29;;;;;;;8.30;1.60;;;;;;;;;;4988791;28;20053;-72
2023/07/27 05:41:55;;;;;;;1.50;1.40;;;;;;;;;;5007103;28;20076;-73
2023/07/27 05:44:21;;;;;;;3.08;1.83;;;;;;;;;;4987196;28;20152;-75
2023/07/27 05:46:46;;;;;;;2.80;1.73;;;;;;;;;;5019343;28;20046;-73
2023/07/27 05:49:12;;;;;;;2.00;1.75;;;;;;;;;;5008888;28;20055;-73
2023/07/27 05:51:38;;;;;;;3.83;1.70;;;;;;;;;;4997935;28;20077;-73
2023/07/27 05:54:03;;;;;;;4.43;1.23;;;;;;;;;;4998277;28;20046;-74
2023/07/27 05:56:29;;;;;;;5.93;1.60;;;;;;;;;;4999244;28;20042;-74
2023/07/27 05:58:54;;;;;;;1.80;1.63;;;;;;;;;;4997234;28;20646;-73
2023/07/27 06:01:20;;;;;;;3.45;1.30;;;;;;;;;;5002303;28;20049;-73
2023/07/27 06:03:46;;;;;;;3.22;1.23;;;;;;;;;;5002852;28;20522;-73
2023/07/27 06:06:11;;;;;;;2.95;1.30;;;;;;;;;;5006907;28;20069;-73
2023/07/27 06:08:37;;;;;;;1.35;1.23;;;;;;;;;;5012825;28;20056;-73
2023/07/27 06:11:04;;;;;;;1.58;1.38;;;;;;;;;;5033434;28;20050;-75
2023/07/27 06:13:31;;;;;;;1.52;1.42;;;;;;;;;;5007729;28;20037;-74
2023/07/27 06:15:57;;;;;;;1.70;1.60;;;;;;;;;;5002573;28;20056;-74
2023/07/27 06:18:22;;;;;;;1.77;1.55;;;;;;;;;;5000835;28;20070;-74
2023/07/27 06:20:48;;;;;;;4.15;1.60;;;;;;;;;;5002414;28;20182;-73
2023/07/27 06:23:13;;;;;;;9.45;1.73;;;;;;;;;;5002879;28;20080;-73
2023/07/27 06:25:43;;;;;;;1.70;1.50;;;;;;;;;;5003599;28;20072;-74
2023/07/27 06:28:09;;;;;;;2.47;1.75;;;;;;;;;;5004039;28;20046;-75
2023/07/27 06:30:36;;;;;;;1.50;1.33;;;;;;;;;;5006385;28;20053;-73
2023/07/27 06:33:01;;;;;;;3.65;1.65;;;;;;;;;;5003009;28;20788;-73
2023/07/27 06:35:26;;;;;;;1.60;1.50;;;;;;;;;;5003527;28;20053;-73
2023/07/27 06:37:52;;;;;;;1.38;1.27;;;;;;;;;;5010028;28;20084;-71
2023/07/27 06:40:18;;;;;;;5.25;1.40;;;;;;;;;;5007864;28;20046;-73
2023/07/27 06:42:43;;;;;;;3.05;1.48;;;;;;;;;;5001241;28;20830;-72
2023/07/27 06:45:09;;;;;;;2.88;1.60;;;;;;;;;;5003389;28;20045;-72
2023/07/27 06:47:35;;;;;;;1.75;1.65;;;;;;;;;;5002936;28;20077;-71
2023/07/27 06:50:00;;;;;;;1.65;1.40;;;;;;;;;;5003333;28;20087;-72
2023/07/27 06:52:25;;;;;;;2.38;1.73;;;;;;;;;;5001488;28;20045;-72
2023/07/27 06:54:51;;;;;;;2.38;2.15;;;;;;;;;;5003153;28;20450;-72
2023/07/27 06:57:16;;;;;;;1.70;1.45;;;;;;;;;;5001290;28;20046;-72
2023/07/27 06:59:42;;;;;;;3.22;1.50;;;;;;;;;;5008023;28;20050;-72
2023/07/27 07:02:08;;;;;;;1.63;1.50;;;;;;;;;;5003784;28;20071;-71
2023/07/27 07:04:33;;;;;;;4.07;1.45;;;;;;;;;;5008092;28;20123;-72
2023/07/27 07:06:59;;;;;;;2.97;1.23;;;;;;;;;;5001573;28;20045;-71
2023/07/27 07:09:24;;;;;;;1.92;1.23;;;;;;;;;;5001217;28;20099;-71
2023/07/27 07:11:50;;;;;;;1.65;1.40;;;;;;;;;;5006635;28;21025;-71
2023/07/27 07:14:15;;;;;;;2.85;1.15;;;;;;;;;;5005152;28;20418;-72
2023/07/27 07:16:40;;;;;;;1.58;1.30;;;;;;;;;;5000344;28;21107;-71
2023/07/27 07:19:06;;;;;;;2.25;1.30;;;;;;;;;;5002946;28;20057;-71
2023/07/27 07:21:31;;;;;;;1.73;1.50;;;;;;;;;;5002934;28;20528;-71
2023/07/27 07:23:57;;;;;;;1.48;1.38;;;;;;;;;;5006799;28;20042;-70
2023/07/27 07:26:22;;;;;;;1.90;1.27;;;;;;;;;;5001805;28;20088;-71
2023/07/27 07:28:48;;;;;;;1.17;1.00;;;;;;;;;;5002589;28;20543;-72
2023/07/27 07:31:13;;;;;;;4.65;1.50;;;;;;;;;;5002319;28;20060;-71
2023/07/27 07:33:39;;;;;;;1.90;1.33;;;;;;;;;;5002629;28;20034;-71
2023/07/27 07:36:04;;;;;;;1.45;1.35;;;;;;;;;;5003104;28;20053;-73
2023/07/27 07:38:30;;;;;;;1.08;1.02;;;;;;;;;;5010500;28;20541;-70
2023/07/27 07:40:55;;;;;;;1.52;1.08;;;;;;;;;;5010936;28;20057;-71
2023/07/27 07:43:20;;;;;;;1.55;1.45;;;;;;;;;;5000645;28;20045;-71
2023/07/27 07:45:46;;;;;;;7.40;1.50;;;;;;;;;;5000199;28;20054;-72
2023/07/27 07:48:11;;;;;;;1.10;1.00;;;;;;;;;;5008448;28;20037;-72
2023/07/27 07:50:37;;;;;;;1.27;1.17;;;;;;;;;;5003103;28;20054;-73
2023/07/27 07:53:05;;;;;;;2.65;1.30;;;;;;;;;;5008099;28;20064;-74
2023/07/27 07:55:34;;;;;;;1.27;1.17;;;;;;;;;;5002092;28;20050;-72
2023/07/27 07:57:59;;;;;;;1.00;1.00;;;;;;;;;;5004413;28;20093;-73
2023/07/27 08:00:24;;;;;;;2.53;1.30;;;;;;;;;;5001077;28;20128;-71
2023/07/27 08:02:50;;;;;;;1.30;1.20;;;;;;;;;;5001269;28;20402;-71
2023/07/27 08:05:15;;;;;;;2.38;1.27;;;;;;;;;;5001655;28;20136;-70
2023/07/27 08:07:41;;;;;;;0.93;0.93;;;;;;;;;;5004779;28;20152;-71
2023/07/27 08:10:06;;;;;;;1.67;1.30;;;;;;;;;;5000614;28;20388;-70
2023/07/27 08:12:32;;;;;;;1.63;1.10;;;;;;;;;;5001226;28;20048;-69
2023/07/27 08:14:57;;;;;;;3.15;1.20;;;;;;;;;;5001268;28;20503;-69
2023/07/27 08:17:22;;;;;;;1.92;1.73;;;;;;;;;;5001648;28;20569;-70
2023/07/27 08:19:48;;;;;;;1.30;1.00;;;;;;;;;;5002829;28;20053;-71
2023/07/27 08:22:13;;;;;;;1.77;1.20;;;;;;;;;;5001310;28;20046;-73
2023/07/27 08:24:39;;;;;;;1.20;1.10;;;;;;;;;;4998757;28;20056;-73
2023/07/27 08:27:05;;;;;;;5.10;1.60;;;;;;;;;;5009229;28;20557;-70
2023/07/27 08:29:31;;;;;;;1.30;1.08;;;;;;;;;;5003688;28;21091;-70
2023/07/27 08:31:56;;;;;;;2.47;1.38;;;;;;;;;;5002076;28;20529;-73
2023/07/27 08:34:22;;;;;;;2.05;1.33;;;;;;;;;;5001920;28;20124;-75
2023/07/27 08:36:50;;;;;;;1.27;1.02;;;;;;;;;;5010030;28;20054;-74
2023/07/27 08:39:16;;;;;;;1.90;1.00;;;;;;;;;;5014560;28;20046;-74
2023/07/27 08:41:41;;;;;;;2.78;1.05;;;;;;;;;;5006675;28;20418;-74
2023/07/27 08:44:07;;;;;;;1.52;1.23;;;;;;;;;;5005778;28;20495;-73
2023/07/27 08:46:33;;;;;;;2.88;1.20;;;;;;;;;;5000680;28;20100;-73
2023/07/27 08:49:01;;;;;;;1.25;1.10;;;;;;;;;;5000485;28;20049;-73
2023/07/27 08:51:30;;;;;;;1.52;1.30;;;;;;;;;;5001265;28;20081;-74
2023/07/27 08:53:55;;;;;;;3.47;1.10;;;;;;;;;;5000484;28;20392;-72
2023/07/27 08:56:20;;;;;;;1.20;1.08;;;;;;;;;;5006732;28;20557;-73
2023/07/27 08:58:46;;;;;;;2.13;1.35;;;;;;;;;;4998899;28;20053;-74
2023/07/27 09:01:13;;;;;;;1.40;1.30;;;;;;;;;;5000892;28;20104;-74
2023/07/27 09:03:42;;;;;;;4.40;1.60;;;;;;;;;;5000391;28;20050;-74
2023/07/27 09:06:07;;;;;;;1.75;1.20;;;;;;;;;;5000683;28;20041;-73
2023/07/27 09:08:33;;;;;;;1.50;1.40;;;;;;;;;;4998740;28;20045;-74
2023/07/27 09:11:06;;;;;;;1.23;1.13;;;;;;;;;;5000582;28;20092;-72
2023/07/27 09:13:32;;;;;;;1.48;1.38;;;;;;;;;;5002711;28;20045;-72
2023/07/27 09:15:59;;;;;;;1.92;1.40;;;;;;;;;;5001076;28;20052;-72
2023/07/27 09:18:25;;;;;;;2.20;1.40;;;;;;;;;;4999846;28;20042;-71
2023/07/27 09:20:51;;;;;;;1.73;1.25;;;;;;;;;;5003594;28;20045;-71
2023/07/27 09:23:21;;;;;;;1.35;1.10;;;;;;;;;;5000560;28;20065;-70
2023/07/27 09:25:55;;;;;;;1.60;1.50;;;;;;;;;;5000024;28;20052;-69
2023/07/27 09:28:25;;;;;;;1.83;1.48;;;;;;;;;;5001441;28;20033;-71
2023/07/27 09:30:51;;;;;;;1.83;1.35;;;;;;;;;;5009725;28;20054;-71
2023/07/27 09:33:21;;;;;;;1.58;1.20;;;;;;;;;;5007809;28;20111;-72
2023/07/27 09:35:49;;;;;;;1.20;1.10;;;;;;;;;;5008269;28;20050;-70
2023/07/27 09:38:15;;;;;;;1.77;1.40;;;;;;;;;;4999962;28;20038;-71
2023/07/27 09:40:41;;;;;;;2.95;1.42;;;;;;;;;;5006458;28;20100;-71
2023/07/27 09:43:07;;;;;;;3.75;1.30;;;;;;;;;;5000448;28;20049;-71
2023/07/27 09:45:37;;;;;;;2.13;1.30;;;;;;;;;;4998912;28;20494;-71
2023/07/27 09:48:03;;;;;;;1.67;1.30;;;;;;;;;;5005231;28;20883;-71
2023/07/27 09:50:30;;;;;;;1.30;1.20;;;;;;;;;;5000033;28;20050;-71
2023/07/27 09:52:58;;;;;;;3.40;1.20;;;;;;;;;;4998200;28;20053;-71
2023/07/27 09:55:25;;;;;;;2.10;1.30;;;;;;;;;;5009894;28;20873;-71
2023/07/27 09:57:51;;;;;;;1.77;1.10;;;;;;;;;;5010208;28;20038;-72
2023/07/27 10:00:17;;;;;;;1.70;1.30;;;;;;;;;;5009012;28;20521;-71
2023/07/27 10:02:43;;;;;;;1.58;1.23;;;;;;;;;;5008456;28;20054;-73
2023/07/27 10:05:08;;;;;;;1.80;1.55;;;;;;;;;;5011158;28;20057;-69
2023/07/27 10:07:34;;;;;;;1.88;1.38;;;;;;;;;;5008465;28;20343;-71
2023/07/27 10:10:28;;;;;;;6.03;1.80;;;;;;;;;;5005282;28;20038;-71
2023/07/27 10:12:58;;;;;;;2.72;1.42;;;;;;;;;;5015801;28;20050;-70
2023/07/27 10:15:28;;;;;;;1.45;1.30;;;;;;;;;;5009151;28;20052;-73
2023/07/27 10:17:59;;;;;;;2.40;1.67;;;;;;;;;;5006249;28;20155;-71
2023/07/27 10:20:26;;;;;;;4.15;1.30;;;;;;;;;;4996960;28;20041;-71
2023/07/27 10:23:13;;;;;;;2.90;1.40;;;;;;;;;;5005842;28;20997;-71
2023/07/27 10:25:56;;;;;;;1.65;1.40;;;;;;;;;;5001348;28;20522;-71
2023/07/27 10:28:29;;;;;;;1.65;1.35;;;;;;;;;;4999424;28;20136;-71
2023/07/27 10:31:16;;;;;;;2.00;1.40;;;;;;;;;;5004032;28;20494;-72
2023/07/27 10:34:07;;;;;;;1.20;1.10;;;;;;;;;;4999808;28;20130;-71
2023/07/27 10:36:51;;;;;;;3.55;1.25;;;;;;;;;;4990984;28;20786;-74
2023/07/27 10:39:18;;;;;;;1.60;1.15;;;;;;;;;;5007273;28;20099;-74
2023/07/27 10:42:05;;;;;;;1.40;1.20;;;;;;;;;;4989289;28;20045;-73
2023/07/27 10:44:42;;;;;;;3.58;1.30;;;;;;;;;;4997128;28;20076;-70
2023/07/27 10:47:32;;;;;;;2.50;1.45;;;;;;;;;;5008183;28;20112;-70
2023/07/27 10:49:59;;;;;;;1.33;1.15;;;;;;;;;;5004951;28;20045;-69
2023/07/27 10:52:29;;;;;;;1.52;1.30;;;;;;;;;;5006460;28;20083;-70
2023/07/27 10:54:59;;;;;;;5.13;1.92;;;;;;;;;;5003974;28;20402;-69
2023/07/27 10:57:29;;;;;;;3.65;1.35;;;;;;;;;;5003266;28;20581;-69
2023/07/27 10:59:56;;;;;;;3.28;1.30;;;;;;;;;;5006196;28;21147;-70
2023/07/27 11:02:32;;;;;;;4.75;1.45;;;;;;;;;;5005985;28;20041;-72
2023/07/27 11:05:00;;;;;;;2.95;1.30;;;;;;;;;;4972478;28;20104;-72
2023/07/27 11:07:34;;;;;;;2.75;1.50;;;;;;;;;;5007041;28;21221;-72
2023/07/27 11:10:03;;;;;;;1.73;1.60;;;;;;;;;;5007566;28;20100;-73
2023/07/27 11:12:29;;;;;;;2.03;1.48;;;;;;;;;;5008222;28;20099;-71
2023/07/27 11:14:55;;;;;;;5.00;1.38;;;;;;;;;;5013766;28;20045;-72
2023/07/27 11:17:22;;;;;;;1.63;1.45;;;;;;;;;;5012128;28;20041;-72
2023/07/27 11:19:47;;;;;;;1.60;1.50;;;;;;;;;;5013900;28;20060;-71
2023/07/27 11:22:13;;;;;;;4.25;1.52;;;;;;;;;;5015975;28;20058;-71
2023/07/27 11:24:39;;;;;;;1.70;1.60;;;;;;;;;;5008347;28;20578;-71
2023/07/27 11:27:10;;;;;;;2.03;1.50;;;;;;;;;;5008531;28;20049;-71
2023/07/27 11:29:39;;;;;;;2.47;1.50;;;;;;;;;;5011906;28;20095;-71
2023/07/27 11:32:05;;;;;;;2.58;1.45;;;;;;;;;;5008014;28;20037;-73
2023/07/27 11:34:30;;;;;;;1.35;1.10;;;;;;;;;;4991010;28;20052;-73
2023/07/27 11:36:58;;;;;;;1.73;1.42;;;;;;;;;;5008004;28;20049;-73
2023/07/27 11:39:24;;;;;;;3.70;1.38;;;;;;;;;;5013299;28;20080;-72
2023/07/27 11:41:50;;;;;;;1.48;1.38;;;;;;;;;;5014863;28;20046;-73
2023/07/27 11:44:20;;;;;;;1.40;1.30;;;;;;;;;;5013260;28;20283;-74
2023/07/27 11:46:49;;;;;;;1.73;1.40;;;;;;;;;;5013369;28;20041;-72
2023/07/27 11:49:20;;;;;;;1.50;1.30;;;;;;;;;;5012740;28;20061;-72
2023/07/27 11:51:47;;;;;;;3.05;1.40;;;;;;;;;;5014302;28;20041;-72
2023/07/27 11:54:27;;;;;;;2.92;1.13;;;;;;;;;;5017873;28;20067;-72
2023/07/27 11:56:54;;;;;;;1.38;1.20;;;;;;;;;;5016624;28;20042;-72
2023/07/27 11:59:20;;;;;;;2.80;1.58;;;;;;;;;;5020250;28;20558;-73
2023/07/27 12:01:48;;;;;;;1.33;1.23;;;;;;;;;;5017585;28;20045;-71
2023/07/27 12:04:14;;;;;;;1.50;1.40;;;;;;;;;;5018249;28;20048;-71
2023/07/27 12:06:41;;;;;;;2.85;1.25;;;;;;;;;;5014111;28;20049;-71
2023/07/27 12:09:07;;;;;;;1.83;1.20;;;;;;;;;;5017244;28;20056;-71
2023/07/27 12:11:33;;;;;;;1.95;1.20;;;;;;;;;;5000647;28;20117;-71
2023/07/27 12:14:04;;;;;;;1.20;1.00;;;;;;;;;;5000622;28;20045;-70
2023/07/27 12:16:37;;;;;;;1.00;1.00;;;;;;;;;;5003868;28;20046;-71
2023/07/27 12:19:02;;;;;;;1.42;1.33;;;;;;;;;;5001041;28;20042;-73
2023/07/27 12:21:28;;;;;;;1.85;1.10;;;;;;;;;;5005087;28;20050;-69
2023/07/27 12:23:53;;;;;;;1.90;0.93;;;;;;;;;;4999874;28;20105;-71
2023/07/27 12:26:19;;;;;;;2.70;1.20;;;;;;;;;;5010227;28;20046;-72
2023/07/27 12:28:44;;;;;;;1.27;1.10;;;;;;;;;;5003017;28;20471;-71
2023/07/27 12:31:10;;;;;;;1.85;1.10;;;;;;;;;;5003905;28;20517;-72
2023/07/27 12:33:35;;;;;;;1.35;1.23;;;;;;;;;;5007633;28;20516;-71
2023/07/27 12:36:01;;;;;;;2.50;1.20;;;;;;;;;;5001036;28;20065;-69
2023/07/27 12:38:26;;;;;;;1.60;0.90;;;;;;;;;;5000340;28;20042;-72
2023/07/27 12:40:52;;;;;;;1.30;0.98;;;;;;;;;;5001109;28;20048;-72
2023/07/27 12:43:17;;;;;;;1.30;1.10;;;;;;;;;;5005264;28;20050;-73
2023/07/27 12:45:42;;;;;;;1.65;1.20;;;;;;;;;;5003557;28;20056;-73
2023/07/27 12:48:08;;;;;;;2.03;1.13;;;;;;;;;;4999711;28;20567;-72
2023/07/27 12:50:34;;;;;;;1.80;1.10;;;;;;;;;;4999887;28;20048;-72
2023/07/27 12:52:59;;;;;;;5.60;0.95;;;;;;;;;;5000694;28;20096;-71
2023/07/27 12:55:25;;;;;;;2.08;1.15;;;;;;;;;;5003787;28;20046;-74
2023/07/27 12:57:50;;;;;;;1.75;1.00;;;;;;;;;;4999128;28;20040;-72
2023/07/27 13:00:16;;;;;;;1.38;1.10;;;;;;;;;;5005839;28;20518;-72
2023/07/27 13:02:45;;;;;;;1.50;1.27;;;;;;;;;;5006415;28;20045;-72
2023/07/27 13:05:15;;;;;;;1.30;1.20;;;;;;;;;;5010938;28;20522;-72
2023/07/27 13:07:41;;;;;;;2.13;1.15;;;;;;;;;;4998931;28;20870;-73
2023/07/27 13:10:11;;;;;;;0.90;0.90;;;;;;;;;;5000143;28;20119;-73
2023/07/27 13:12:37;;;;;;;2.60;1.23;;;;;;;;;;5010158;28;20308;-71
2023/07/27 13:15:03;;;;;;;2.70;1.10;;;;;;;;;;5021023;28;20644;-70
2023/07/27 13:17:29;;;;;;;1.30;1.15;;;;;;;;;;5014790;28;20606;-72
2023/07/27 13:19:55;;;;;;;0.93;0.90;;;;;;;;;;5013884;28;20053;-72
2023/07/27 13:22:21;;;;;;;1.63;1.23;;;;;;;;;;5018766;28;20044;-72
2023/07/27 13:24:46;;;;;;;1.20;1.10;;;;;;;;;;5016225;28;20537;-71
2023/07/27 13:27:12;;;;;;;2.88;1.20;;;;;;;;;;5015008;28;20128;-72
2023/07/27 13:29:37;;;;;;;0.85;0.85;;;;;;;;;;5012610;28;20045;-71
2023/07/27 13:32:03;;;;;;;1.00;1.00;;;;;;;;;;5000953;28;20050;-72
2023/07/27 13:34:28;;;;;;;1.10;1.00;;;;;;;;;;5001214;28;20049;-71
2023/07/27 13:36:53;;;;;;;1.23;1.10;;;;;;;;;;5000614;28;20054;-71
2023/07/27 13:39:19;;;;;;;4.65;2.13;;;;;;;;;;5010835;28;20045;-70
2023/07/27 13:41:45;;;;;;;1.65;1.10;;;;;;;;;;5013568;28;20033;-71
2023/07/27 13:44:12;;;;;;;2.00;1.10;;;;;;;;;;5013279;28;20053;-71
2023/07/27 13:46:37;;;;;;;1.42;1.27;;;;;;;;;;5006169;28;20037;-71
2023/07/27 13:49:03;;;;;;;1.65;1.20;;;;;;;;;;5003249;28;20119;-69
2023/07/27 13:51:28;;;;;;;1.70;1.10;;;;;;;;;;5003931;28;20041;-70
2023/07/27 13:53:53;;;;;;;2.10;1.23;;;;;;;;;;5003636;28;20871;-71
2023/07/27 13:56:19;;;;;;;1.05;1.00;;;;;;;;;;5005783;28;20081;-71
2023/07/27 13:58:44;;;;;;;1.20;1.10;;;;;;;;;;5003492;28;20435;-70
2023/07/27 14:01:10;;;;;;;1.20;1.10;;;;;;;;;;5002636;28;20041;-70
2023/07/27 14:03:35;;;;;;;2.78;0.90;;;;;;;;;;4999540;28;20046;-71
2023/07/27 14:06:01;;;;;;;2.60;1.00;;;;;;;;;;4999660;28;20057;-71
2023/07/27 14:08:26;;;;;;;7.97;1.20;;;;;;;;;;5004122;28;20058;-71
2023/07/27 14:10:52;;;;;;;1.08;1.08;;;;;;;;;;5004545;28;20053;-74
2023/07/27 14:13:18;;;;;;;1.10;0.90;;;;;;;;;;5000249;28;20046;-70
2023/07/27 14:15:43;;;;;;;1.13;0.80;;;;;;;;;;5006540;28;20061;-70
2023/07/27 14:18:09;;;;;;;1.05;0.90;;;;;;;;;;5007426;28;20050;-71
2023/07/27 14:20:34;;;;;;;2.63;1.10;;;;;;;;;;5003206;28;20562;-69
2023/07/27 14:23:00;;;;;;;1.75;0.77;;;;;;;;;;5009689;28;20048;-70
2023/07/27 14:25:26;;;;;;;2.05;0.80;;;;;;;;;;5010886;28;20482;-72
2023/07/27 14:27:52;;;;;;;0.95;0.80;;;;;;;;;;5013222;28;20056;-72
2023/07/27 14:30:17;;;;;;;4.55;1.10;;;;;;;;;;5011872;28;20041;-71
2023/07/27 14:32:42;;;;;;;1.20;0.95;;;;;;;;;;5009832;28;20978;-70
2023/07/27 14:35:08;;;;;;;0.95;0.90;;;;;;;;;;5012907;28;20133;-71
2023/07/27 14:37:33;;;;;;;1.60;1.00;;;;;;;;;;5013558;28;20046;-71
2023/07/27 14:39:59;;;;;;;2.55;1.02;;;;;;;;;;5008634;28;20056;-70
2023/07/27 14:42:25;;;;;;;1.52;1.00;;;;;;;;;;5016482;28;20133;-71